• Join FlightAware (Why Join?)
  • Login
  • US Flag 
Gobble Gobble! 
12:44PM EST


 

Airport Tracker/Info


-or-


 

Live Flight TrackerFlight Track Log ✈ USC105 ✈ 26-Apr-2012 ✈ KBKL - KYIP

Flight Track Log - Related Links

Times and Time Zones

All times are in EDT time to prevent confusion due to time zone crossing. See the USC105 flight status page for this flight to view local times or setup timezone preferences in your user account.

Time Position Orientation Groundspeed Altitude Reporting Facility
EDT Latitude Longitude Course Direction KTS MPH feet Rate Location/Type
11:13PM 41.5275 -81.6814 308° West 89 102 1,200  Level Cleveland Center
11:15PM 41.5439 -81.7094 302° West 99 114 2,900 1,380 Climbing Cleveland Center
11:16PM 41.5581 -81.7403 296° West 95 109 4,400 1,380 Climbing Cleveland Center
11:17PM 41.5703 -81.7739 296° West 94 108 5,800 1,260 Climbing Cleveland Center
11:18PM 41.5822 -81.8072 299° West 104 120 7,000 1,080 Climbing Cleveland Center
11:19PM 41.5986 -81.8464 296° West 121 139 8,000 480 Climbing Cleveland Center
11:20PM 41.6167 -81.8969 298° West 158 182 8,000  Level Cleveland Center
11:21PM 41.6369 -81.9472 297° West 161 185 8,000  Level Cleveland Center
11:22PM 41.6572 -82.0006 299° West 158 182 8,000  Level Cleveland Center
11:23PM 41.6794 -82.0539 300° West 158 182 8,000  Level Cleveland Center
11:24PM 41.6997 -82.1017 292° West 155 178 8,000  Level Cleveland Center
11:25PM 41.7178 -82.1603 307° West 158 182 8,000  Level Cleveland Center
11:25PM 41.7319 -82.1858 294° West 158 182 8,000  Level Cleveland Center
11:26PM 41.7519 -82.2475 297° West 156 180 8,000  Level Cleveland Center
11:27PM 41.7719 -82.3011 295° West 160 184 8,000  Level Cleveland Center
11:28PM 41.7858 -82.3403 297° West 160 184 8,000  Level Cleveland Center
11:29PM 41.8061 -82.3939 298° West 161 185 8,000  Level Cleveland Center
11:30PM 41.8300 -82.4531 298° West 159 183 8,000  Level Cleveland Center
11:31PM 41.8500 -82.5039 300° West 160 184 8,000  Level Cleveland Center
11:32PM 41.8722 -82.5547 296° West 157 181 8,000  Level Cleveland Center
11:33PM 41.8919 -82.6083 295° West 159 183 8,000  Level Cleveland Center
11:34PM 41.9119 -82.6647 291° West 160 184 8,000  Level Cleveland Center
11:35PM 41.9294 -82.7267 288° West 159 183 8,000  Level Cleveland Center
11:36PM 41.9431 -82.7831 289° West 162 186 8,000  Level Cleveland Center
11:37PM 41.9586 -82.8422 294° West 161 185 8,000  Level Cleveland Center
11:38PM 41.9761 -82.8958 290° West 163 188 8,000  Level Cleveland Center
11:39PM 41.9917 -82.9522 289° West 164 189 8,000  Level Cleveland Center
11:40PM 42.0072 -83.0144 288° West 165 190 8,000  Level Cleveland Center
11:42PM 42.0225 -83.0792 289° West 161 185 8,000 -60 Level Cleveland Center
11:43PM 42.0358 -83.1328 289° West 160 184 7,900 -360 Descending Cleveland Center
11:44PM 42.0511 -83.1922 291° West 165 190 7,300 -600 Descending Cleveland Center
11:45PM 42.0686 -83.2544 292° West 172 198 6,700 -540 Descending Cleveland Center
11:46PM 42.0858 -83.3111 289° West 163 188 6,300 -540 Descending Cleveland Center
11:47PM 42.1011 -83.3706 289° West 164 189 5,700 -600 Descending Cleveland Center
11:48PM 42.1164 -83.4300 294° West 172 198 5,100 -600 Descending Cleveland Center
11:48PM 42.1303 -83.4719 289° West 170 196 4,700 -540 Descending FAA TRACON SMA TRACON (SMA)
11:49PM 42.1403 -83.5108 287° West 168 193 4,400 -420 Descending FAA TRACON SMA TRACON (SMA)
11:50PM 42.1492 -83.5489 309° West 162 186 4,200 -540 Descending FAA TRACON SMA TRACON (SMA)
11:50PM 42.1650 -83.5750 343° North 128 147 3,700 -1,140 Descending FAA TRACON SMA TRACON (SMA)
11:51PM 42.1853 -83.5833 17° North 114 131 2,700 -1,500 Descending FAA TRACON SMA TRACON (SMA)
11:52PM 42.2053 -83.5750 45° Northeast 118 136 1,700 -1,260 Descending FAA TRACON SMA TRACON (SMA)
11:52PM 42.2211 -83.5533 46° Northeast 113 130 1,000 -600 Descending FAA TRACON SMA TRACON (SMA)
11:53PM 42.2258 -83.5467 46° Northeast 110 127 900 -180 Descending FAA TRACON SMA TRACON (SMA)